sensor_id;sensor_type;location;lat;lon;timestamp;temperature;humidity
9151;DHT22;4610;50.006;7.490;2023-03-25T00:02:04;6.50;99.90
9151;DHT22;4610;50.006;7.490;2023-03-25T00:04:31;6.50;99.90
9151;DHT22;4610;50.006;7.490;2023-03-25T00:06:59;6.50;99.90
9151;DHT22;4610;50.006;7.490;2023-03-25T00:09:28;6.40;99.90
9151;DHT22;4610;50.006;7.490;2023-03-25T00:11:55;6.40;99.90
9151;DHT22;4610;50.006;7.490;2023-03-25T00:14:21;6.40;99.90
9151;DHT22;4610;50.006;7.490;2023-03-25T00:16:49;6.40;99.90
9151;DHT22;4610;50.006;7.490;2023-03-25T00:19:17;6.50;99.90
9151;DHT22;4610;50.006;7.490;2023-03-25T00:21:46;6.50;99.90
9151;DHT22;4610;50.006;7.490;2023-03-25T00:24:15;6.60;99.90
9151;DHT22;4610;50.006;7.490;2023-03-25T00:26:44;6.60;99.90
9151;DHT22;4610;50.006;7.490;2023-03-25T00:29:11;6.60;99.90
9151;DHT22;4610;50.006;7.490;2023-03-25T00:31:38;6.60;99.90
9151;DHT22;4610;50.006;7.490;2023-03-25T00:34:05;6.70;99.90
9151;DHT22;4610;50.006;7.490;2023-03-25T00:36:32;6.70;99.90
9151;DHT22;4610;50.006;7.490;2023-03-25T00:39:02;6.80;99.90
9151;DHT22;4610;50.006;7.490;2023-03-25T00:41:29;6.80;99.90
9151;DHT22;4610;50.006;7.490;2023-03-25T00:43:59;6.80;99.90
9151;DHT22;4610;50.006;7.490;2023-03-25T00:46:28;6.80;99.90
9151;DHT22;4610;50.006;7.490;2023-03-25T00:48:55;6.80;99.90
9151;DHT22;4610;50.006;7.490;2023-03-25T00:51:24;6.80;99.90
9151;DHT22;4610;50.006;7.490;2023-03-25T00:53:51;6.90;99.90
9151;DHT22;4610;50.006;7.490;2023-03-25T00:56:18;6.90;99.90
9151;DHT22;4610;50.006;7.490;2023-03-25T00:58:45;7.00;99.90
9151;DHT22;4610;50.006;7.490;2023-03-25T01:01:15;7.00;99.90
9151;DHT22;4610;50.006;7.490;2023-03-25T01:03:42;7.00;99.90
9151;DHT22;4610;50.006;7.490;2023-03-25T01:06:10;7.10;99.90
9151;DHT22;4610;50.006;7.490;2023-03-25T01:08:37;7.10;99.90
9151;DHT22;4610;50.006;7.490;2023-03-25T01:11:05;7.00;99.90
9151;DHT22;4610;50.006;7.490;2023-03-25T01:13:33;7.10;99.90
9151;DHT22;4610;50.006;7.490;2023-03-25T01:16:00;7.10;99.90
9151;DHT22;4610;50.006;7.490;2023-03-25T01:18:28;7.10;99.90
9151;DHT22;4610;50.006;7.490;2023-03-25T01:20:59;7.20;99.90
9151;DHT22;4610;50.006;7.490;2023-03-25T01:23:25;7.30;99.90
9151;DHT22;4610;50.006;7.490;2023-03-25T01:25:52;7.30;99.90
9151;DHT22;4610;50.006;7.490;2023-03-25T01:28:19;7.40;99.90
9151;DHT22;4610;50.006;7.490;2023-03-25T01:30:46;7.30;99.90
9151;DHT22;4610;50.006;7.490;2023-03-25T01:33:12;7.40;99.90
9151;DHT22;4610;50.006;7.490;2023-03-25T01:35:41;7.40;99.90
9151;DHT22;4610;50.006;7.490;2023-03-25T01:38:08;7.50;99.90
9151;DHT22;4610;50.006;7.490;2023-03-25T01:40:34;7.50;99.90
9151;DHT22;4610;50.006;7.490;2023-03-25T01:43:01;7.60;99.90
9151;DHT22;4610;50.006;7.490;2023-03-25T01:45:30;7.60;99.90
9151;DHT22;4610;50.006;7.490;2023-03-25T01:48:03;7.70;99.90
9151;DHT22;4610;50.006;7.490;2023-03-25T01:50:31;7.60;99.90
9151;DHT22;4610;50.006;7.490;2023-03-25T01:53:02;7.60;99.90
9151;DHT22;4610;50.006;7.490;2023-03-25T01:55:32;7.60;99.90
9151;DHT22;4610;50.006;7.490;2023-03-25T01:58:01;7.60;99.90
9151;DHT22;4610;50.006;7.490;2023-03-25T02:00:30;7.70;99.90
9151;DHT22;4610;50.006;7.490;2023-03-25T02:02:58;7.70;99.90
9151;DHT22;4610;50.006;7.490;2023-03-25T02:05:31;7.70;99.90
9151;DHT22;4610;50.006;7.490;2023-03-25T02:08:03;7.70;99.90
9151;DHT22;4610;50.006;7.490;2023-03-25T02:10:31;7.70;99.90
9151;DHT22;4610;50.006;7.490;2023-03-25T02:12:59;7.70;99.90
9151;DHT22;4610;50.006;7.490;2023-03-25T02:15:29;7.70;99.90
9151;DHT22;4610;50.006;7.490;2023-03-25T02:18:10;7.70;99.90
9151;DHT22;4610;50.006;7.490;2023-03-25T02:21:16;7.70;99.90
9151;DHT22;4610;50.006;7.490;2023-03-25T02:27:22;7.70;99.90
9151;DHT22;4610;50.006;7.490;2023-03-25T02:39:21;7.60;99.90
9151;DHT22;4610;50.006;7.490;2023-03-25T02:41:52;7.60;99.90
9151;DHT22;4610;50.006;7.490;2023-03-25T02:44:26;7.60;99.90
9151;DHT22;4610;50.006;7.490;2023-03-25T02:46:57;7.60;99.90
9151;DHT22;4610;50.006;7.490;2023-03-25T02:49:29;7.60;99.90
9151;DHT22;4610;50.006;7.490;2023-03-25T02:52:00;7.60;99.90
9151;DHT22;4610;50.006;7.490;2023-03-25T02:54:32;7.50;99.90
9151;DHT22;4610;50.006;7.490;2023-03-25T02:57:01;7.50;99.90
9151;DHT22;4610;50.006;7.490;2023-03-25T02:59:30;7.50;99.90
9151;DHT22;4610;50.006;7.490;2023-03-25T03:01:59;7.50;99.90
9151;DHT22;4610;50.006;7.490;2023-03-25T03:04:28;7.50;99.90
9151;DHT22;4610;50.006;7.490;2023-03-25T03:06:55;7.50;99.90
9151;DHT22;4610;50.006;7.490;2023-03-25T03:09:37;7.50;99.90
9151;DHT22;4610;50.006;7.490;2023-03-25T03:12:23;7.50;99.90
9151;DHT22;4610;50.006;7.490;2023-03-25T03:14:59;7.40;99.90
9151;DHT22;4610;50.006;7.490;2023-03-25T03:17:36;7.30;99.90
9151;DHT22;4610;50.006;7.490;2023-03-25T03:20:09;7.40;99.90
9151;DHT22;4610;50.006;7.490;2023-03-25T03:22:41;7.30;99.90
9151;DHT22;4610;50.006;7.490;2023-03-25T03:25:18;7.20;99.90
9151;DHT22;4610;50.006;7.490;2023-03-25T03:27:50;7.20;99.90
9151;DHT22;4610;50.006;7.490;2023-03-25T03:30:23;7.20;99.90
9151;DHT22;4610;50.006;7.490;2023-03-25T03:32:58;7.10;99.90
9151;DHT22;4610;50.006;7.490;2023-03-25T03:35:28;7.00;99.90
9151;DHT22;4610;50.006;7.490;2023-03-25T03:37:59;7.00;99.90
9151;DHT22;4610;50.006;7.490;2023-03-25T03:40:28;7.10;99.90
9151;DHT22;4610;50.006;7.490;2023-03-25T03:42:59;7.10;99.90
9151;DHT22;4610;50.006;7.490;2023-03-25T03:45:30;7.10;99.90
9151;DHT22;4610;50.006;7.490;2023-03-25T03:48:03;7.10;99.90
9151;DHT22;4610;50.006;7.490;2023-03-25T03:50:35;7.10;99.90
9151;DHT22;4610;50.006;7.490;2023-03-25T03:53:08;7.10;99.90
9151;DHT22;4610;50.006;7.490;2023-03-25T03:55:40;7.00;99.90
9151;DHT22;4610;50.006;7.490;2023-03-25T03:58:11;7.00;99.90
9151;DHT22;4610;50.006;7.490;2023-03-25T04:00:43;7.00;99.90
9151;DHT22;4610;50.006;7.490;2023-03-25T04:03:17;7.10;99.90
9151;DHT22;4610;50.006;7.490;2023-03-25T04:05:53;7.10;99.90
9151;DHT22;4610;50.006;7.490;2023-03-25T04:08:30;7.10;99.90
9151;DHT22;4610;50.006;7.490;2023-03-25T04:11:01;7.10;99.90
9151;DHT22;4610;50.006;7.490;2023-03-25T04:13:35;7.10;99.90
9151;DHT22;4610;50.006;7.490;2023-03-25T04:16:03;7.00;99.90
9151;DHT22;4610;50.006;7.490;2023-03-25T04:18:30;7.00;99.90
9151;DHT22;4610;50.006;7.490;2023-03-25T04:20:58;7.10;99.90
9151;DHT22;4610;50.006;7.490;2023-03-25T04:23:25;7.00;99.90
9151;DHT22;4610;50.006;7.490;2023-03-25T04:25:54;7.10;99.90
9151;DHT22;4610;50.006;7.490;2023-03-25T04:28:23;7.10;99.90
9151;DHT22;4610;50.006;7.490;2023-03-25T04:30:50;7.10;99.90
9151;DHT22;4610;50.006;7.490;2023-03-25T04:33:20;7.10;99.90
9151;DHT22;4610;50.006;7.490;2023-03-25T04:35:47;7.00;99.90
9151;DHT22;4610;50.006;7.490;2023-03-25T04:38:15;7.00;99.90
9151;DHT22;4610;50.006;7.490;2023-03-25T04:40:42;7.00;99.90
9151;DHT22;4610;50.006;7.490;2023-03-25T04:43:11;7.00;99.90
9151;DHT22;4610;50.006;7.490;2023-03-25T04:45:39;7.00;99.90
9151;DHT22;4610;50.006;7.490;2023-03-25T04:48:12;7.00;99.90
9151;DHT22;4610;50.006;7.490;2023-03-25T04:50:44;7.00;99.90
9151;DHT22;4610;50.006;7.490;2023-03-25T04:53:11;7.00;99.90
9151;DHT22;4610;50.006;7.490;2023-03-25T04:55:37;7.00;99.90
9151;DHT22;4610;50.006;7.490;2023-03-25T04:58:12;6.90;99.90
9151;DHT22;4610;50.006;7.490;2023-03-25T05:00:41;6.90;99.90
9151;DHT22;4610;50.006;7.490;2023-03-25T05:03:09;6.90;99.90
9151;DHT22;4610;50.006;7.490;2023-03-25T05:05:36;7.00;99.90
9151;DHT22;4610;50.006;7.490;2023-03-25T05:08:03;7.00;99.90
9151;DHT22;4610;50.006;7.490;2023-03-25T05:10:29;7.00;99.90
9151;DHT22;4610;50.006;7.490;2023-03-25T05:13:00;7.00;99.90
9151;DHT22;4610;50.006;7.490;2023-03-25T05:15:28;7.00;99.90
9151;DHT22;4610;50.006;7.490;2023-03-25T05:17:58;7.00;99.90
9151;DHT22;4610;50.006;7.490;2023-03-25T05:20:26;6.90;99.90
9151;DHT22;4610;50.006;7.490;2023-03-25T05:22:53;7.00;99.90
9151;DHT22;4610;50.006;7.490;2023-03-25T05:25:22;7.00;99.90
9151;DHT22;4610;50.006;7.490;2023-03-25T05:27:48;7.10;99.90
9151;DHT22;4610;50.006;7.490;2023-03-25T05:30:15;7.10;99.90
9151;DHT22;4610;50.006;7.490;2023-03-25T05:32:42;7.10;99.90
9151;DHT22;4610;50.006;7.490;2023-03-25T05:35:11;7.10;99.90
9151;DHT22;4610;50.006;7.490;2023-03-25T05:37:38;7.10;99.90
9151;DHT22;4610;50.006;7.490;2023-03-25T05:40:06;7.00;99.90
9151;DHT22;4610;50.006;7.490;2023-03-25T05:42:34;7.10;99.90
9151;DHT22;4610;50.006;7.490;2023-03-25T05:45:02;7.10;99.90
9151;DHT22;4610;50.006;7.490;2023-03-25T05:47:29;7.20;99.90
9151;DHT22;4610;50.006;7.490;2023-03-25T05:49:56;7.20;99.90
9151;DHT22;4610;50.006;7.490;2023-03-25T05:52:24;7.20;99.90
9151;DHT22;4610;50.006;7.490;2023-03-25T05:54:51;7.30;99.90
9151;DHT22;4610;50.006;7.490;2023-03-25T05:57:20;7.30;99.90
9151;DHT22;4610;50.006;7.490;2023-03-25T05:59:46;7.30;99.90
9151;DHT22;4610;50.006;7.490;2023-03-25T06:02:14;7.20;99.90
9151;DHT22;4610;50.006;7.490;2023-03-25T06:04:42;7.20;99.90
9151;DHT22;4610;50.006;7.490;2023-03-25T06:07:09;7.20;99.90
9151;DHT22;4610;50.006;7.490;2023-03-25T06:09:41;7.30;99.90
9151;DHT22;4610;50.006;7.490;2023-03-25T06:12:11;7.30;99.90
9151;DHT22;4610;50.006;7.490;2023-03-25T06:14:38;7.40;99.90
9151;DHT22;4610;50.006;7.490;2023-03-25T06:17:07;7.50;99.90
9151;DHT22;4610;50.006;7.490;2023-03-25T06:19:34;7.40;99.90
9151;DHT22;4610;50.006;7.490;2023-03-25T06:22:08;7.40;99.90
9151;DHT22;4610;50.006;7.490;2023-03-25T06:24:35;7.40;99.90
9151;DHT22;4610;50.006;7.490;2023-03-25T06:27:05;7.50;99.90
9151;DHT22;4610;50.006;7.490;2023-03-25T06:29:32;7.70;99.90
9151;DHT22;4610;50.006;7.490;2023-03-25T06:31:59;8.30;99.90
9151;DHT22;4610;50.006;7.490;2023-03-25T06:34:26;9.90;99.90
9151;DHT22;4610;50.006;7.490;2023-03-25T06:36:52;10.80;99.90
9151;DHT22;4610;50.006;7.490;2023-03-25T06:39:19;10.70;99.90
9151;DHT22;4610;50.006;7.490;2023-03-25T06:41:46;10.40;99.90
9151;DHT22;4610;50.006;7.490;2023-03-25T06:44:14;10.00;99.90
9151;DHT22;4610;50.006;7.490;2023-03-25T06:46:41;9.40;99.90
9151;DHT22;4610;50.006;7.490;2023-03-25T06:49:08;9.00;99.90
9151;DHT22;4610;50.006;7.490;2023-03-25T06:51:35;8.90;99.90
9151;DHT22;4610;50.006;7.490;2023-03-25T06:54:01;8.80;99.90
9151;DHT22;4610;50.006;7.490;2023-03-25T06:56:28;8.80;99.90
9151;DHT22;4610;50.006;7.490;2023-03-25T06:58:55;8.80;99.90
9151;DHT22;4610;50.006;7.490;2023-03-25T07:01:23;8.80;99.90
9151;DHT22;4610;50.006;7.490;2023-03-25T07:03:50;9.10;99.90
9151;DHT22;4610;50.006;7.490;2023-03-25T07:06:20;9.70;99.90
9151;DHT22;4610;50.006;7.490;2023-03-25T07:08:47;10.50;99.90
9151;DHT22;4610;50.006;7.490;2023-03-25T07:11:15;11.60;99.90
9151;DHT22;4610;50.006;7.490;2023-03-25T07:13:42;11.60;99.90
9151;DHT22;4610;50.006;7.490;2023-03-25T07:16:09;11.50;99.90
9151;DHT22;4610;50.006;7.490;2023-03-25T07:18:38;11.70;99.90
9151;DHT22;4610;50.006;7.490;2023-03-25T07:21:05;12.40;99.90
9151;DHT22;4610;50.006;7.490;2023-03-25T07:23:32;12.30;99.90
9151;DHT22;4610;50.006;7.490;2023-03-25T07:25:59;11.90;99.90
9151;DHT22;4610;50.006;7.490;2023-03-25T07:28:25;11.20;99.90
9151;DHT22;4610;50.006;7.490;2023-03-25T07:30:52;10.90;99.90
9151;DHT22;4610;50.006;7.490;2023-03-25T07:33:19;10.70;99.90
9151;DHT22;4610;50.006;7.490;2023-03-25T07:35:47;10.50;99.90
9151;DHT22;4610;50.006;7.490;2023-03-25T07:38:14;10.50;99.90
9151;DHT22;4610;50.006;7.490;2023-03-25T07:40:40;10.30;99.90
9151;DHT22;4610;50.006;7.490;2023-03-25T07:43:07;10.70;99.90
9151;DHT22;4610;50.006;7.490;2023-03-25T07:45:34;11.60;99.90
9151;DHT22;4610;50.006;7.490;2023-03-25T07:48:01;12.30;99.90
9151;DHT22;4610;50.006;7.490;2023-03-25T07:50:28;12.40;99.90
9151;DHT22;4610;50.006;7.490;2023-03-25T07:52:56;12.10;99.90
9151;DHT22;4610;50.006;7.490;2023-03-25T07:55:23;11.60;99.90
9151;DHT22;4610;50.006;7.490;2023-03-25T07:57:49;11.40;99.90
9151;DHT22;4610;50.006;7.490;2023-03-25T08:00:16;11.00;99.90
9151;DHT22;4610;50.006;7.490;2023-03-25T08:02:43;10.70;99.90
9151;DHT22;4610;50.006;7.490;2023-03-25T08:05:10;11.00;99.90
9151;DHT22;4610;50.006;7.490;2023-03-25T08:07:37;10.90;99.90
9151;DHT22;4610;50.006;7.490;2023-03-25T08:10:06;10.90;99.90
9151;DHT22;4610;50.006;7.490;2023-03-25T08:12:33;11.10;99.90
9151;DHT22;4610;50.006;7.490;2023-03-25T08:15:02;11.20;99.90
9151;DHT22;4610;50.006;7.490;2023-03-25T08:17:29;11.50;99.90
9151;DHT22;4610;50.006;7.490;2023-03-25T08:19:56;11.80;99.90
9151;DHT22;4610;50.006;7.490;2023-03-25T08:22:23;11.90;99.90
9151;DHT22;4610;50.006;7.490;2023-03-25T08:24:50;12.10;99.90
9151;DHT22;4610;50.006;7.490;2023-03-25T08:27:18;12.30;99.90
9151;DHT22;4610;50.006;7.490;2023-03-25T08:29:45;12.20;99.90
9151;DHT22;4610;50.006;7.490;2023-03-25T08:32:22;11.90;99.90
9151;DHT22;4610;50.006;7.490;2023-03-25T08:34:49;11.70;99.90
9151;DHT22;4610;50.006;7.490;2023-03-25T08:37:16;11.50;99.90
9151;DHT22;4610;50.006;7.490;2023-03-25T08:39:43;11.10;99.90
9151;DHT22;4610;50.006;7.490;2023-03-25T08:42:11;10.70;99.90
9151;DHT22;4610;50.006;7.490;2023-03-25T08:44:39;10.40;99.90
9151;DHT22;4610;50.006;7.490;2023-03-25T08:47:06;10.00;99.90
9151;DHT22;4610;50.006;7.490;2023-03-25T08:49:33;9.40;99.90
9151;DHT22;4610;50.006;7.490;2023-03-25T08:52:00;8.90;99.90
9151;DHT22;4610;50.006;7.490;2023-03-25T08:54:28;8.60;99.90
9151;DHT22;4610;50.006;7.490;2023-03-25T08:56:55;8.40;99.90
9151;DHT22;4610;50.006;7.490;2023-03-25T08:59:22;8.30;99.90
9151;DHT22;4610;50.006;7.490;2023-03-25T09:01:50;8.10;99.90
9151;DHT22;4610;50.006;7.490;2023-03-25T09:04:17;8.00;99.90
9151;DHT22;4610;50.006;7.490;2023-03-25T09:06:43;8.10;99.90
9151;DHT22;4610;50.006;7.490;2023-03-25T09:09:11;8.10;99.90
9151;DHT22;4610;50.006;7.490;2023-03-25T09:11:38;8.20;99.90
9151;DHT22;4610;50.006;7.490;2023-03-25T09:14:04;8.10;99.90
9151;DHT22;4610;50.006;7.490;2023-03-25T09:16:32;7.90;99.90
9151;DHT22;4610;50.006;7.490;2023-03-25T09:19:00;7.90;99.90
9151;DHT22;4610;50.006;7.490;2023-03-25T09:21:27;7.70;99.90
9151;DHT22;4610;50.006;7.490;2023-03-25T09:23:54;7.60;99.90
9151;DHT22;4610;50.006;7.490;2023-03-25T09:26:21;8.10;99.90
9151;DHT22;4610;50.006;7.490;2023-03-25T09:28:47;9.60;99.90
9151;DHT22;4610;50.006;7.490;2023-03-25T09:31:14;10.90;99.90
9151;DHT22;4610;50.006;7.490;2023-03-25T09:33:41;11.90;99.90
9151;DHT22;4610;50.006;7.490;2023-03-25T09:36:09;13.40;99.90
9151;DHT22;4610;50.006;7.490;2023-03-25T09:38:37;13.70;99.90
9151;DHT22;4610;50.006;7.490;2023-03-25T09:41:21;14.20;99.90
9151;DHT22;4610;50.006;7.490;2023-03-25T09:43:54;14.60;99.90
9151;DHT22;4610;50.006;7.490;2023-03-25T09:46:25;14.80;99.90
9151;DHT22;4610;50.006;7.490;2023-03-25T09:48:53;15.30;99.90
9151;DHT22;4610;50.006;7.490;2023-03-25T09:51:24;15.40;99.90
9151;DHT22;4610;50.006;7.490;2023-03-25T09:53:55;15.60;99.90
9151;DHT22;4610;50.006;7.490;2023-03-25T09:56:26;15.40;99.90
9151;DHT22;4610;50.006;7.490;2023-03-25T09:58:58;15.00;99.90
9151;DHT22;4610;50.006;7.490;2023-03-25T10:01:36;15.00;99.90
9151;DHT22;4610;50.006;7.490;2023-03-25T10:04:17;14.90;99.90
9151;DHT22;4610;50.006;7.490;2023-03-25T10:06:50;14.50;99.90
9151;DHT22;4610;50.006;7.490;2023-03-25T10:09:36;15.00;99.90
9151;DHT22;4610;50.006;7.490;2023-03-25T10:12:11;14.50;99.90
9151;DHT22;4610;50.006;7.490;2023-03-25T10:14:56;13.90;99.90
9151;DHT22;4610;50.006;7.490;2023-03-25T10:17:29;14.60;99.90
9151;DHT22;4610;50.006;7.490;2023-03-25T10:20:02;14.50;99.90
9151;DHT22;4610;50.006;7.490;2023-03-25T10:22:40;14.90;99.90
9151;DHT22;4610;50.006;7.490;2023-03-25T10:25:14;15.20;99.90
9151;DHT22;4610;50.006;7.490;2023-03-25T10:27:44;15.30;99.90
9151;DHT22;4610;50.006;7.490;2023-03-25T10:30:13;15.20;99.90
9151;DHT22;4610;50.006;7.490;2023-03-25T10:32:45;14.50;99.90
9151;DHT22;4610;50.006;7.490;2023-03-25T10:35:16;13.90;99.90
9151;DHT22;4610;50.006;7.490;2023-03-25T10:37:46;13.00;99.90
9151;DHT22;4610;50.006;7.490;2023-03-25T10:40:21;12.50;99.90
9151;DHT22;4610;50.006;7.490;2023-03-25T10:42:57;12.40;99.90
9151;DHT22;4610;50.006;7.490;2023-03-25T10:45:26;13.00;99.90
9151;DHT22;4610;50.006;7.490;2023-03-25T10:47:59;13.80;99.90
9151;DHT22;4610;50.006;7.490;2023-03-25T10:50:28;13.80;99.90
9151;DHT22;4610;50.006;7.490;2023-03-25T10:52:56;13.60;99.90
9151;DHT22;4610;50.006;7.490;2023-03-25T10:55:25;13.40;99.90
9151;DHT22;4610;50.006;7.490;2023-03-25T10:57:54;13.20;99.90
9151;DHT22;4610;50.006;7.490;2023-03-25T11:00:22;12.80;99.90
9151;DHT22;4610;50.006;7.490;2023-03-25T11:02:51;13.00;99.90
9151;DHT22;4610;50.006;7.490;2023-03-25T11:05:21;12.80;99.90
9151;DHT22;4610;50.006;7.490;2023-03-25T11:07:50;12.90;99.90
9151;DHT22;4610;50.006;7.490;2023-03-25T11:10:22;12.80;99.90
9151;DHT22;4610;50.006;7.490;2023-03-25T11:12:50;12.30;99.90
9151;DHT22;4610;50.006;7.490;2023-03-25T11:15:20;12.20;99.90
9151;DHT22;4610;50.006;7.490;2023-03-25T11:17:55;12.00;99.90
9151;DHT22;4610;50.006;7.490;2023-03-25T11:20:27;12.20;99.90
9151;DHT22;4610;50.006;7.490;2023-03-25T11:23:00;12.80;99.90
9151;DHT22;4610;50.006;7.490;2023-03-25T11:25:31;13.10;99.90
9151;DHT22;4610;50.006;7.490;2023-03-25T11:28:08;13.00;99.90
9151;DHT22;4610;50.006;7.490;2023-03-25T11:30:36;12.90;99.90
9151;DHT22;4610;50.006;7.490;2023-03-25T11:33:04;13.00;99.90
9151;DHT22;4610;50.006;7.490;2023-03-25T11:35:36;13.00;99.90
9151;DHT22;4610;50.006;7.490;2023-03-25T11:38:13;13.00;99.90
9151;DHT22;4610;50.006;7.490;2023-03-25T11:40:50;13.30;99.90
9151;DHT22;4610;50.006;7.490;2023-03-25T11:43:20;13.50;99.90
9151;DHT22;4610;50.006;7.490;2023-03-25T11:45:49;13.70;99.90
9151;DHT22;4610;50.006;7.490;2023-03-25T11:48:17;13.90;99.90
9151;DHT22;4610;50.006;7.490;2023-03-25T11:50:46;14.10;99.90
9151;DHT22;4610;50.006;7.490;2023-03-25T11:53:17;13.80;99.90
9151;DHT22;4610;50.006;7.490;2023-03-25T11:55:48;13.10;99.90
9151;DHT22;4610;50.006;7.490;2023-03-25T11:58:19;12.50;99.90
9151;DHT22;4610;50.006;7.490;2023-03-25T12:00:47;12.30;99.90
9151;DHT22;4610;50.006;7.490;2023-03-25T12:03:19;12.10;99.90
9151;DHT22;4610;50.006;7.490;2023-03-25T12:05:57;12.10;99.90
9151;DHT22;4610;50.006;7.490;2023-03-25T12:08:28;12.30;99.90
9151;DHT22;4610;50.006;7.490;2023-03-25T12:11:00;12.70;99.90
9151;DHT22;4610;50.006;7.490;2023-03-25T12:13:43;12.90;99.90
9151;DHT22;4610;50.006;7.490;2023-03-25T12:16:22;13.10;99.90
9151;DHT22;4610;50.006;7.490;2023-03-25T12:19:03;13.10;99.90
9151;DHT22;4610;50.006;7.490;2023-03-25T12:21:42;12.90;99.90
9151;DHT22;4610;50.006;7.490;2023-03-25T12:24:21;12.20;99.90
9151;DHT22;4610;50.006;7.490;2023-03-25T12:27:07;12.20;99.90
9151;DHT22;4610;50.006;7.490;2023-03-25T12:29:40;11.90;99.90
9151;DHT22;4610;50.006;7.490;2023-03-25T12:32:17;11.90;99.90
9151;DHT22;4610;50.006;7.490;2023-03-25T12:34:56;11.90;99.90
9151;DHT22;4610;50.006;7.490;2023-03-25T12:37:30;12.20;99.90
9151;DHT22;4610;50.006;7.490;2023-03-25T12:43:03;12.40;99.90
9151;DHT22;4610;50.006;7.490;2023-03-25T12:45:46;12.50;99.90
9151;DHT22;4610;50.006;7.490;2023-03-25T12:48:27;12.40;99.90
9151;DHT22;4610;50.006;7.490;2023-03-25T12:51:02;12.70;99.90
9151;DHT22;4610;50.006;7.490;2023-03-25T12:53:41;12.80;99.90
9151;DHT22;4610;50.006;7.490;2023-03-25T12:56:20;13.00;99.90
9151;DHT22;4610;50.006;7.490;2023-03-25T12:59:15;13.10;99.90
9151;DHT22;4610;50.006;7.490;2023-03-25T13:01:52;12.90;99.90
9151;DHT22;4610;50.006;7.490;2023-03-25T13:04:42;13.00;99.90
9151;DHT22;4610;50.006;7.490;2023-03-25T13:07:17;13.00;99.90
9151;DHT22;4610;50.006;7.490;2023-03-25T13:09:52;12.90;99.90
9151;DHT22;4610;50.006;7.490;2023-03-25T13:12:27;12.80;99.90
9151;DHT22;4610;50.006;7.490;2023-03-25T13:15:04;12.70;99.90
9151;DHT22;4610;50.006;7.490;2023-03-25T13:17:37;12.70;99.90
9151;DHT22;4610;50.006;7.490;2023-03-25T13:20:06;12.80;99.90
9151;DHT22;4610;50.006;7.490;2023-03-25T13:22:37;12.50;99.90
9151;DHT22;4610;50.006;7.490;2023-03-25T13:25:07;12.60;99.90
9151;DHT22;4610;50.006;7.490;2023-03-25T13:27:41;12.60;99.90
9151;DHT22;4610;50.006;7.490;2023-03-25T13:30:18;12.70;99.90
9151;DHT22;4610;50.006;7.490;2023-03-25T13:32:49;12.70;99.90
9151;DHT22;4610;50.006;7.490;2023-03-25T13:35:23;12.60;99.90
9151;DHT22;4610;50.006;7.490;2023-03-25T13:37:53;12.60;99.90
9151;DHT22;4610;50.006;7.490;2023-03-25T13:40:26;12.70;99.90
9151;DHT22;4610;50.006;7.490;2023-03-25T13:42:58;12.80;99.90
9151;DHT22;4610;50.006;7.490;2023-03-25T13:45:30;12.80;99.90
9151;DHT22;4610;50.006;7.490;2023-03-25T13:48:03;12.80;99.90
9151;DHT22;4610;50.006;7.490;2023-03-25T13:50:32;12.90;99.90
9151;DHT22;4610;50.006;7.490;2023-03-25T13:53:04;12.80;99.90
9151;DHT22;4610;50.006;7.490;2023-03-25T13:55:35;12.70;99.90
9151;DHT22;4610;50.006;7.490;2023-03-25T14:01:34;12.60;99.90
9151;DHT22;4610;50.006;7.490;2023-03-25T14:04:28;12.50;99.90
9151;DHT22;4610;50.006;7.490;2023-03-25T14:07:07;12.60;99.90
9151;DHT22;4610;50.006;7.490;2023-03-25T14:09:58;12.70;99.90
9151;DHT22;4610;50.006;7.490;2023-03-25T14:12:29;12.60;99.90
9151;DHT22;4610;50.006;7.490;2023-03-25T14:15:02;12.60;99.90
9151;DHT22;4610;50.006;7.490;2023-03-25T14:17:33;12.60;99.90
9151;DHT22;4610;50.006;7.490;2023-03-25T14:20:03;12.60;99.90
9151;DHT22;4610;50.006;7.490;2023-03-25T14:22:36;12.70;99.90
9151;DHT22;4610;50.006;7.490;2023-03-25T14:25:04;12.70;99.90
9151;DHT22;4610;50.006;7.490;2023-03-25T14:27:33;12.60;99.90
9151;DHT22;4610;50.006;7.490;2023-03-25T14:30:03;12.60;99.90
9151;DHT22;4610;50.006;7.490;2023-03-25T14:32:33;12.60;99.90
9151;DHT22;4610;50.006;7.490;2023-03-25T14:41:03;12.50;99.90
9151;DHT22;4610;50.006;7.490;2023-03-25T14:43:36;12.50;99.90
9151;DHT22;4610;50.006;7.490;2023-03-25T14:46:13;12.40;99.90
9151;DHT22;4610;50.006;7.490;2023-03-25T14:48:48;12.40;99.90
9151;DHT22;4610;50.006;7.490;2023-03-25T14:51:45;12.30;99.90
9151;DHT22;4610;50.006;7.490;2023-03-25T14:54:24;12.40;99.90
9151;DHT22;4610;50.006;7.490;2023-03-25T14:56:56;12.40;99.90
9151;DHT22;4610;50.006;7.490;2023-03-25T14:59:28;12.50;99.90
9151;DHT22;4610;50.006;7.490;2023-03-25T15:02:02;12.50;99.90
9151;DHT22;4610;50.006;7.490;2023-03-25T15:04:33;12.40;99.90
9151;DHT22;4610;50.006;7.490;2023-03-25T15:07:01;12.40;99.90
9151;DHT22;4610;50.006;7.490;2023-03-25T15:09:29;12.30;99.90
9151;DHT22;4610;50.006;7.490;2023-03-25T15:11:58;12.30;99.90
9151;DHT22;4610;50.006;7.490;2023-03-25T15:14:28;12.40;99.90
9151;DHT22;4610;50.006;7.490;2023-03-25T15:17:02;12.20;99.90
9151;DHT22;4610;50.006;7.490;2023-03-25T15:22:37;12.00;99.90
9151;DHT22;4610;50.006;7.490;2023-03-25T15:25:11;11.90;99.90
9151;DHT22;4610;50.006;7.490;2023-03-25T15:27:55;11.80;99.90
9151;DHT22;4610;50.006;7.490;2023-03-25T15:30:36;11.80;99.90
9151;DHT22;4610;50.006;7.490;2023-03-25T15:33:15;11.70;99.90
9151;DHT22;4610;50.006;7.490;2023-03-25T15:35:59;11.60;99.90
9151;DHT22;4610;50.006;7.490;2023-03-25T15:38:44;11.50;99.90
9151;DHT22;4610;50.006;7.490;2023-03-25T15:41:35;11.40;99.90
9151;DHT22;4610;50.006;7.490;2023-03-25T15:47:16;11.30;99.90
9151;DHT22;4610;50.006;7.490;2023-03-25T15:50:33;11.30;99.90
9151;DHT22;4610;50.006;7.490;2023-03-25T15:53:25;11.20;99.90
9151;DHT22;4610;50.006;7.490;2023-03-25T15:55:58;11.20;99.90
9151;DHT22;4610;50.006;7.490;2023-03-25T15:58:31;11.10;99.90
9151;DHT22;4610;50.006;7.490;2023-03-25T16:01:11;11.10;99.90
9151;DHT22;4610;50.006;7.490;2023-03-25T16:03:40;11.10;99.90
9151;DHT22;4610;50.006;7.490;2023-03-25T16:06:13;11.20;99.90
9151;DHT22;4610;50.006;7.490;2023-03-25T16:08:44;11.20;99.90
9151;DHT22;4610;50.006;7.490;2023-03-25T16:11:13;11.20;99.90
9151;DHT22;4610;50.006;7.490;2023-03-25T16:13:41;11.10;99.90
9151;DHT22;4610;50.006;7.490;2023-03-25T16:16:08;11.00;99.90
9151;DHT22;4610;50.006;7.490;2023-03-25T16:18:37;11.00;99.90
9151;DHT22;4610;50.006;7.490;2023-03-25T16:21:06;11.00;99.90
9151;DHT22;4610;50.006;7.490;2023-03-25T16:23:34;11.00;99.90
9151;DHT22;4610;50.006;7.490;2023-03-25T16:26:04;11.00;99.90
9151;DHT22;4610;50.006;7.490;2023-03-25T16:28:32;11.00;99.90
9151;DHT22;4610;50.006;7.490;2023-03-25T16:30:59;10.90;99.90
9151;DHT22;4610;50.006;7.490;2023-03-25T16:33:29;10.80;99.90
9151;DHT22;4610;50.006;7.490;2023-03-25T16:35:58;10.80;99.90
9151;DHT22;4610;50.006;7.490;2023-03-25T16:38:26;10.80;99.90
9151;DHT22;4610;50.006;7.490;2023-03-25T16:40:59;10.80;99.90
9151;DHT22;4610;50.006;7.490;2023-03-25T16:43:29;10.70;99.90
9151;DHT22;4610;50.006;7.490;2023-03-25T16:45:58;10.80;99.90
9151;DHT22;4610;50.006;7.490;2023-03-25T16:48:28;10.80;99.90
9151;DHT22;4610;50.006;7.490;2023-03-25T16:50:57;10.80;99.90
9151;DHT22;4610;50.006;7.490;2023-03-25T16:53:25;10.80;99.90
9151;DHT22;4610;50.006;7.490;2023-03-25T16:55:56;10.80;99.90
9151;DHT22;4610;50.006;7.490;2023-03-25T16:58:25;10.80;99.90
9151;DHT22;4610;50.006;7.490;2023-03-25T17:00:55;10.80;99.90
9151;DHT22;4610;50.006;7.490;2023-03-25T17:03:39;10.70;99.90
9151;DHT22;4610;50.006;7.490;2023-03-25T17:06:11;10.70;99.90